createdAt,value
2023-04-17T00:02:20.123Z,100813.20
2023-04-17T00:04:48.647Z,100815.01
2023-04-17T00:07:16.670Z,100812.94
2023-04-17T00:09:44.282Z,100806.80
2023-04-17T00:12:11.920Z,100806.55
2023-04-17T00:14:39.606Z,100806.02
2023-04-17T00:17:07.724Z,100807.36
2023-04-17T00:19:35.467Z,100804.65
2023-04-17T00:22:03.140Z,100809.23
2023-04-17T00:24:31.171Z,100808.73
2023-04-17T00:26:58.815Z,100803.95
2023-04-17T00:29:26.433Z,100801.83
2023-04-17T00:31:54.106Z,100805.48
2023-04-17T00:34:21.791Z,100805.20
2023-04-17T00:36:49.851Z,100805.95
2023-04-17T00:39:17.660Z,100807.16
2023-04-17T00:41:45.473Z,100808.74
2023-04-17T00:44:14.042Z,100812.52
2023-04-17T00:46:42.000Z,100811.89
2023-04-17T00:49:10.998Z,100814.91
2023-04-17T00:51:38.800Z,100819.11
2023-04-17T00:54:07.401Z,100821.58
2023-04-17T00:56:35.506Z,100828.42
2023-04-17T00:59:06.097Z,100831.25
2023-04-17T01:01:33.872Z,100825.89
2023-04-17T01:04:07.520Z,100821.60
2023-04-17T01:06:36.544Z,100827.27
2023-04-17T01:09:04.281Z,100830.38
2023-04-17T01:11:32.033Z,100829.58
2023-04-17T01:14:00.291Z,100829.41
2023-04-17T01:16:30.692Z,100829.42
2023-04-17T01:18:59.649Z,100830.28
2023-04-17T01:21:27.655Z,100829.83
2023-04-17T01:24:02.580Z,100831.33
2023-04-17T01:26:32.721Z,100833.98
2023-04-17T01:29:00.849Z,100833.23
2023-04-17T01:31:30.116Z,100832.34
2023-04-17T01:33:57.910Z,100831.98
2023-04-17T01:36:25.612Z,100830.87
2023-04-17T01:38:53.232Z,100832.34
2023-04-17T01:41:20.915Z,100830.38
2023-04-17T01:43:48.973Z,100833.61
2023-04-17T01:46:16.657Z,100832.92
2023-04-17T01:48:44.623Z,100833.28
2023-04-17T01:51:12.312Z,100828.73
2023-04-17T01:53:40.093Z,100828.39
2023-04-17T01:56:07.932Z,100831.34
2023-04-17T01:58:36.015Z,100832.32
2023-04-17T02:01:04.204Z,100834.21
2023-04-17T02:03:32.172Z,100830.48
2023-04-17T02:06:00.124Z,100835.33
2023-04-17T02:08:27.840Z,100831.97
2023-04-17T02:10:56.033Z,100832.98
2023-04-17T02:13:24.130Z,100831.85
2023-04-17T02:15:52.256Z,100834.08
2023-04-17T02:18:20.766Z,100834.17
2023-04-17T02:20:48.915Z,100837.86
2023-04-17T02:23:16.627Z,100838.52
2023-04-17T02:25:44.249Z,100839.05
2023-04-17T02:28:11.934Z,100842.80
2023-04-17T02:30:39.723Z,100841.29
2023-04-17T02:33:07.553Z,100842.22
2023-04-17T02:35:35.459Z,100843.98
2023-04-17T02:38:03.280Z,100844.65
2023-04-17T02:40:33.140Z,100848.35
2023-04-17T02:43:02.484Z,100844.52
2023-04-17T02:45:30.783Z,100844.47
2023-04-17T02:47:58.633Z,100845.63
2023-04-17T02:50:26.603Z,100845.16
2023-04-17T02:53:05.176Z,100844.38
2023-04-17T02:55:32.985Z,100843.61
2023-04-17T02:58:00.932Z,100844.80
2023-04-17T03:00:29.532Z,100843.23
2023-04-17T03:02:57.500Z,100845.45
2023-04-17T03:05:25.880Z,100847.33
2023-04-17T03:07:54.681Z,100853.16
2023-04-17T03:10:22.585Z,100854.10
2023-04-17T03:12:50.379Z,100858.27
2023-04-17T03:15:18.067Z,100862.52
2023-04-17T03:17:46.108Z,100864.26
2023-04-17T03:44:19.454Z,100868.08
2023-04-17T03:46:47.195Z,100875.27
2023-04-17T03:49:15.452Z,100876.34
2023-04-17T03:51:43.856Z,100878.91
2023-04-17T03:54:16.168Z,100889.06
2023-04-17T03:56:44.582Z,100893.09
2023-04-17T03:59:12.633Z,100889.94
2023-04-17T04:01:45.375Z,100893.65
2023-04-17T04:04:18.644Z,100892.55
2023-04-17T04:33:36.968Z,100917.13
2023-04-17T04:36:03.704Z,100917.17
2023-04-17T04:38:31.881Z,100925.21
2023-04-17T04:41:05.260Z,100925.22
2023-04-17T04:43:32.894Z,100927.13
2023-04-17T04:46:00.051Z,100930.93
2023-04-17T04:48:28.282Z,100928.70
2023-04-17T04:50:57.470Z,100935.81
2023-04-17T04:53:24.295Z,100938.78
2023-04-17T04:55:56.740Z,100938.74
2023-04-17T04:58:23.345Z,100935.58
2023-04-17T05:00:51.590Z,100931.12
2023-04-17T05:03:25.743Z,100931.64
2023-04-17T05:05:52.704Z,100934.17
2023-04-17T05:08:19.623Z,100935.16
2023-04-17T05:10:52.756Z,100937.15
2023-04-17T05:13:19.222Z,100934.27
2023-04-17T05:15:45.520Z,100935.35
2023-04-17T05:18:12.116Z,100938.77
2023-04-17T05:20:38.627Z,100941.73
2023-04-17T05:23:05.493Z,100941.09
2023-04-17T05:25:31.818Z,100943.23
2023-04-17T05:27:58.288Z,100942.97
2023-04-17T05:30:24.617Z,100946.13
2023-04-17T05:32:59.054Z,100944.27
2023-04-17T05:35:41.159Z,100944.05
2023-04-17T05:38:09.043Z,100946.23
2023-04-17T05:40:35.753Z,100950.70
2023-04-17T05:43:10.440Z,100946.04
2023-04-17T05:45:38.416Z,100947.53
2023-04-17T05:48:07.897Z,100945.73
2023-04-17T05:50:36.708Z,100948.55
2023-04-17T05:53:03.872Z,100947.40
2023-04-17T05:55:33.745Z,100947.42
2023-04-17T05:58:10.530Z,100947.58
2023-04-17T06:00:47.919Z,100945.20
2023-04-17T06:03:18.198Z,100944.29
2023-04-17T06:05:46.298Z,100939.23
2023-04-17T06:08:12.620Z,100940.77
2023-04-17T06:10:38.998Z,100945.91
2023-04-17T06:13:05.280Z,100951.14
2023-04-17T06:15:31.558Z,100953.63
2023-04-17T06:17:57.918Z,100954.46
2023-04-17T06:20:24.214Z,100955.76
2023-04-17T06:22:50.547Z,100954.13
2023-04-17T06:25:17.592Z,100953.34
2023-04-17T06:27:45.135Z,100956.45
2023-04-17T06:30:12.429Z,100961.23
2023-04-17T06:32:49.973Z,100952.59
2023-04-17T06:35:18.477Z,100958.11
2023-04-17T06:37:48.484Z,100959.52
2023-04-17T06:40:14.788Z,100958.73
2023-04-17T06:42:41.049Z,100962.60
2023-04-17T06:45:11.646Z,100959.23
2023-04-17T06:47:38.113Z,100957.45
2023-04-17T06:50:05.129Z,100960.98
2023-04-17T06:52:31.405Z,100963.99
2023-04-17T06:54:57.879Z,100967.59
2023-04-17T06:57:24.234Z,100972.36
2023-04-17T06:59:50.790Z,100971.17
2023-04-17T07:02:17.316Z,100971.35
2023-04-17T07:04:43.941Z,100975.23
2023-04-17T07:07:10.430Z,100978.37
2023-04-17T07:09:36.687Z,100977.29
2023-04-17T07:12:03.169Z,100975.87
2023-04-17T07:14:30.020Z,100982.92
2023-04-17T07:16:56.282Z,100984.95
2023-04-17T07:19:22.675Z,100982.96
2023-04-17T07:21:48.877Z,100984.15
2023-04-17T07:24:15.160Z,100985.37
2023-04-17T07:26:42.672Z,100983.61
2023-04-17T07:29:08.928Z,100986.48
2023-04-17T07:31:35.375Z,100993.02
2023-04-17T07:34:01.713Z,100992.77
2023-04-17T07:36:29.191Z,100991.03
2023-04-17T07:38:55.404Z,100995.19
2023-04-17T07:41:21.683Z,100993.93
2023-04-17T07:43:48.533Z,100992.83
2023-04-17T07:46:14.813Z,100996.73
2023-04-17T07:48:41.153Z,100996.70
2023-04-17T07:51:07.527Z,100998.51
2023-04-17T07:53:35.550Z,100998.11
2023-04-17T07:56:01.916Z,100997.02
2023-04-17T07:58:28.384Z,101001.20
2023-04-17T08:00:54.756Z,101000.71
2023-04-17T08:03:21.796Z,101001.58
2023-04-17T08:05:48.648Z,100999.63
2023-04-17T08:08:15.468Z,101006.02
2023-04-17T08:10:41.687Z,101004.59
2023-04-17T08:13:07.922Z,101005.90
2023-04-17T08:15:34.421Z,101007.04
2023-04-17T08:18:00.817Z,101011.39
2023-04-17T08:20:27.403Z,101016.05
2023-04-17T08:22:53.674Z,101017.54
2023-04-17T08:25:20.416Z,101015.94
2023-04-17T08:27:47.000Z,101016.39
2023-04-17T08:30:16.225Z,101022.16
2023-04-17T08:32:46.646Z,101024.46
2023-04-17T08:35:14.297Z,101026.82
2023-04-17T08:37:42.029Z,101029.89
2023-04-17T08:40:09.156Z,101028.46
2023-04-17T08:42:36.965Z,101033.46
2023-04-17T08:45:08.896Z,101038.52
2023-04-17T08:47:39.182Z,101038.06
2023-04-17T08:50:15.234Z,101039.27
2023-04-17T08:52:43.162Z,101036.20
2023-04-17T08:55:19.107Z,101036.75
2023-04-17T08:58:03.189Z,101039.23
2023-04-17T09:00:33.825Z,101042.20
2023-04-17T09:03:03.324Z,101045.21
2023-04-17T09:05:35.954Z,101046.35
2023-04-17T09:08:07.271Z,101052.86
2023-04-17T09:10:42.617Z,101054.77
2023-04-17T09:13:11.508Z,101052.35
2023-04-17T09:15:37.825Z,101056.93
2023-04-17T09:18:04.337Z,101056.84
2023-04-17T09:20:31.256Z,101054.34
2023-04-17T09:23:00.272Z,101051.89
2023-04-17T09:25:27.600Z,101056.90
2023-04-17T09:28:00.784Z,101057.92
2023-04-17T09:30:27.080Z,101056.36
2023-04-17T09:33:04.595Z,101051.52
2023-04-17T09:35:32.761Z,101055.46
2023-04-17T09:37:59.387Z,101052.46
2023-04-17T09:40:27.997Z,101057.03
2023-04-17T09:42:58.456Z,101057.44
2023-04-17T09:45:27.513Z,101055.19
2023-04-17T09:47:56.526Z,101061.36
2023-04-17T09:50:26.342Z,101065.52
2023-04-17T09:52:55.225Z,101064.34
2023-04-17T09:55:23.407Z,101062.54
2023-04-17T09:57:55.375Z,101067.72
2023-04-17T10:00:24.886Z,101065.36
2023-04-17T10:02:53.471Z,101064.05
2023-04-17T10:05:22.084Z,101068.55
2023-04-17T10:07:48.738Z,101066.91
2023-04-17T10:10:32.638Z,101066.30
2023-04-17T10:13:01.730Z,101062.60
2023-04-17T10:15:29.841Z,101061.39
2023-04-17T10:18:19.128Z,101061.61
2023-04-17T10:20:47.978Z,101060.63
2023-04-17T10:23:32.496Z,101059.09
2023-04-17T10:26:25.692Z,101062.11
2023-04-17T10:28:53.387Z,101058.64
2023-04-17T10:31:22.507Z,101058.77
2023-04-17T10:33:53.509Z,101061.05
2023-04-17T10:36:37.864Z,101056.13
2023-04-17T10:39:15.627Z,101055.54
2023-04-17T10:42:01.973Z,101052.86
2023-04-17T10:44:35.241Z,101047.05
2023-04-17T10:47:09.406Z,101049.27
2023-04-17T10:49:57.597Z,101048.42
2023-04-17T10:52:39.307Z,101046.27
2023-04-17T10:55:07.161Z,101046.02
2023-04-17T10:57:51.925Z,101043.34
2023-04-17T11:00:20.984Z,101042.98
2023-04-17T11:02:49.576Z,101044.59
2023-04-17T11:05:20.556Z,101037.18
2023-04-17T11:07:51.031Z,101036.31
2023-04-17T11:10:19.126Z,101032.70
2023-04-17T11:12:52.535Z,101035.04
2023-04-17T11:15:30.000Z,101036.15
2023-04-17T11:17:57.964Z,101038.36
2023-04-17T11:20:30.159Z,101037.17
2023-04-17T11:23:01.018Z,101040.23
2023-04-17T11:25:32.878Z,101034.56
2023-04-17T11:28:05.049Z,101036.00
2023-04-17T11:30:36.474Z,101036.19
2023-04-17T11:33:05.435Z,101035.13
2023-04-17T11:35:34.116Z,101032.08
2023-04-17T11:38:21.684Z,101033.44
2023-04-17T11:40:54.082Z,101035.34
2023-04-17T11:43:22.291Z,101033.77
2023-04-17T11:45:58.842Z,101034.75
2023-04-17T11:48:29.449Z,101033.85
2023-04-17T11:50:58.505Z,101032.52
2023-04-17T11:53:25.009Z,101028.26
2023-04-17T11:56:13.090Z,101026.04
2023-04-17T11:58:52.654Z,101027.97
2023-04-17T12:01:23.840Z,101032.16
2023-04-17T12:03:51.239Z,101030.33
2023-04-17T12:06:17.790Z,101033.66
2023-04-17T12:08:52.845Z,101029.13
2023-04-17T12:11:26.648Z,101031.98
2023-04-17T12:13:53.837Z,101033.05
2023-04-17T12:16:21.736Z,101041.44
2023-04-17T12:18:48.168Z,101044.41
2023-04-17T12:21:14.736Z,101044.30
2023-04-17T12:23:41.773Z,101042.66
2023-04-17T12:26:08.886Z,101046.73
2023-04-17T12:28:35.813Z,101045.68
2023-04-17T12:31:03.833Z,101049.49
2023-04-17T12:33:31.118Z,101047.09
2023-04-17T12:35:58.140Z,101043.68
2023-04-17T12:38:24.570Z,101039.36
2023-04-17T12:40:50.822Z,101045.05
2023-04-17T12:43:17.127Z,101043.05
2023-04-17T12:45:46.527Z,101043.94
2023-04-17T12:48:14.109Z,101046.83
2023-04-17T12:50:44.951Z,101044.39
2023-04-17T12:53:14.181Z,101049.13
2023-04-17T12:55:42.797Z,101052.25
2023-04-17T12:58:10.900Z,101050.45
2023-04-17T13:00:39.075Z,101046.48
2023-04-17T13:03:06.233Z,101048.05
2023-04-17T13:05:34.190Z,101047.37
2023-04-17T13:08:00.960Z,101047.08
2023-04-17T13:10:27.349Z,101044.90
2023-04-17T13:12:54.095Z,101041.23
2023-04-17T13:15:21.108Z,101040.31
2023-04-17T13:17:47.558Z,101037.77
2023-04-17T13:20:13.906Z,101035.67
2023-04-17T13:22:40.529Z,101042.09
2023-04-17T13:25:07.492Z,101041.39
2023-04-17T13:27:34.039Z,101039.21
2023-04-17T13:30:00.306Z,101038.65
2023-04-17T13:32:26.669Z,101043.12
2023-04-17T13:34:53.204Z,101042.02
2023-04-17T13:37:19.775Z,101042.82
2023-04-17T13:39:46.576Z,101040.36
2023-04-17T13:42:15.648Z,101045.20
2023-04-17T13:44:43.490Z,101049.48
2023-04-17T13:47:12.465Z,101048.67
2023-04-17T13:49:38.738Z,101050.67
2023-04-17T13:52:06.056Z,101051.55
2023-04-17T13:54:32.424Z,101046.14
2023-04-17T13:57:00.979Z,101045.80
2023-04-17T13:59:27.445Z,101048.28
2023-04-17T14:01:53.875Z,101049.70
2023-04-17T14:04:21.033Z,101045.77
2023-04-17T14:06:50.250Z,101043.14
2023-04-17T14:09:17.122Z,101045.12
2023-04-17T14:11:43.441Z,101042.67
2023-04-17T14:14:12.064Z,101051.08
2023-04-17T14:16:40.236Z,101049.73
2023-04-17T14:21:39.482Z,101047.67
2023-04-17T14:24:06.055Z,101050.45
2023-04-17T14:26:32.471Z,101049.82
2023-04-17T14:28:58.965Z,101048.25
2023-04-17T14:31:25.289Z,101046.31
2023-04-17T14:33:51.551Z,101047.41
2023-04-17T14:36:17.980Z,101047.04
2023-04-17T14:38:48.468Z,101045.02
2023-04-17T14:41:16.041Z,101043.15
2023-04-17T14:43:42.444Z,101044.98
2023-04-17T14:46:08.967Z,101043.58
2023-04-17T14:48:44.300Z,101042.29
2023-04-17T14:51:22.356Z,101044.05
2023-04-17T14:53:49.627Z,101045.21
2023-04-17T14:56:16.462Z,101042.77
2023-04-17T14:58:42.930Z,101037.95
2023-04-17T15:01:09.883Z,101041.42
2023-04-17T15:03:36.580Z,101045.33
2023-04-17T15:06:03.494Z,101041.56
2023-04-17T15:08:30.558Z,101042.83
2023-04-17T15:10:58.017Z,101041.91
2023-04-17T15:13:24.348Z,101043.73
2023-04-17T15:15:52.149Z,101047.45
2023-04-17T15:18:18.383Z,101048.97
2023-04-17T15:20:45.503Z,101044.73
2023-04-17T15:23:11.746Z,101049.23
2023-04-17T15:25:38.278Z,101055.55
2023-04-17T15:28:04.544Z,101053.56
2023-04-17T15:30:30.766Z,101051.87
2023-04-17T15:32:57.282Z,101049.83
2023-04-17T15:35:23.632Z,101048.70
2023-04-17T15:37:49.968Z,101048.38
2023-04-17T15:40:16.242Z,101048.25
2023-04-17T15:42:43.328Z,101053.38
2023-04-17T15:45:10.232Z,101054.37
2023-04-17T15:47:36.561Z,101053.42
2023-04-17T15:50:03.214Z,101048.65
2023-04-17T15:52:29.438Z,101054.46
2023-04-17T15:54:55.746Z,101054.97
2023-04-17T15:57:22.710Z,101056.14
2023-04-17T15:59:49.097Z,101056.27
2023-04-17T16:02:16.208Z,101061.69
2023-04-17T16:04:43.064Z,101064.15
2023-04-17T16:07:11.237Z,101062.71
2023-04-17T16:09:39.148Z,101060.75
2023-04-17T16:12:08.011Z,101064.47
2023-04-17T16:14:35.535Z,101064.31
2023-04-17T16:17:02.902Z,101070.11
2023-04-17T16:19:30.213Z,101066.98
2023-04-17T16:21:57.097Z,101068.30
2023-04-17T16:24:24.260Z,101067.75
2023-04-17T16:26:58.189Z,101066.09
2023-04-17T16:29:25.460Z,101067.98
2023-04-17T16:31:53.476Z,101070.33
2023-04-17T16:34:20.220Z,101071.00
2023-04-17T16:36:48.965Z,101070.14
2023-04-17T16:39:15.641Z,101074.48
2023-04-17T16:41:42.630Z,101074.71
2023-04-17T16:44:09.252Z,101074.34
2023-04-17T16:46:55.174Z,101079.01
2023-04-17T16:49:22.082Z,101082.09
2023-04-17T16:51:48.392Z,101083.90
2023-04-17T16:54:15.000Z,101085.75
2023-04-17T16:56:42.024Z,101088.02
2023-04-17T16:59:08.343Z,101094.13
2023-04-17T17:01:35.151Z,101095.71
2023-04-17T17:04:01.529Z,101100.31
2023-04-17T17:06:28.488Z,101105.33
2023-04-17T17:08:55.481Z,101107.27
2023-04-17T17:11:22.188Z,101110.10
2023-04-17T17:13:49.396Z,101111.60
2023-04-17T17:16:17.590Z,101113.00
2023-04-17T17:18:45.051Z,101112.89
2023-04-17T17:21:12.754Z,101115.36
2023-04-17T17:23:42.124Z,101115.67
2023-04-17T17:26:08.692Z,101114.70
2023-04-17T17:28:35.202Z,101116.15
2023-04-17T17:31:03.462Z,101121.35
2023-04-17T17:33:32.016Z,101124.99
2023-04-17T17:35:59.253Z,101124.88
2023-04-17T17:38:31.667Z,101129.96
2023-04-17T17:40:58.054Z,101130.77
2023-04-17T17:43:24.506Z,101135.05
2023-04-17T17:45:51.687Z,101133.64
2023-04-17T17:48:19.618Z,101138.91
2023-04-17T17:50:46.812Z,101141.16
2023-04-17T17:53:13.483Z,101138.91
2023-04-17T17:55:39.974Z,101141.23
2023-04-17T17:58:08.100Z,101145.73
2023-04-17T18:00:35.037Z,101148.29
2023-04-17T18:03:01.483Z,101153.77
2023-04-17T18:05:27.933Z,101155.52
2023-04-17T18:07:54.698Z,101150.33
2023-04-17T18:10:21.546Z,101150.91
2023-04-17T18:12:48.513Z,101152.52
2023-04-17T18:15:14.806Z,101151.82
2023-04-17T18:17:41.156Z,101154.98
2023-04-17T18:20:08.364Z,101161.18
2023-04-17T18:22:37.309Z,101162.08
2023-04-17T18:25:05.729Z,101163.84
2023-04-17T18:27:35.045Z,101160.10
2023-04-17T18:30:03.336Z,101167.25
2023-04-17T18:32:31.037Z,101173.83
2023-04-17T18:34:57.784Z,101178.55
2023-04-17T18:37:24.579Z,101175.64
2023-04-17T18:39:51.644Z,101176.88
2023-04-17T18:42:18.676Z,101176.89
2023-04-17T18:44:45.286Z,101178.55
2023-04-17T18:47:12.011Z,101176.99
2023-04-17T18:49:38.599Z,101177.93
2023-04-17T18:52:05.066Z,101179.77
2023-04-17T18:54:31.969Z,101183.64
2023-04-17T18:56:58.739Z,101182.30
2023-04-17T18:59:27.269Z,101185.12
2023-04-17T19:01:53.962Z,101184.89
2023-04-17T19:04:21.064Z,101189.57
2023-04-17T19:06:47.554Z,101187.95
2023-04-17T19:09:14.238Z,101188.89
2023-04-17T19:11:40.589Z,101189.52
2023-04-17T19:14:07.160Z,101188.24
2023-04-17T19:16:33.774Z,101187.69
2023-04-17T19:19:00.382Z,101190.45
2023-04-17T19:21:27.665Z,101190.67
2023-04-17T19:23:54.834Z,101190.92
2023-04-17T19:26:22.258Z,101193.56
2023-04-17T19:28:48.822Z,101195.55
2023-04-17T19:31:15.204Z,101196.42
2023-04-17T19:33:41.917Z,101200.14
2023-04-17T19:36:08.549Z,101198.54
2023-04-17T19:38:34.940Z,101202.12
2023-04-17T19:41:18.897Z,101202.06
2023-04-17T19:43:46.377Z,101200.02
2023-04-17T19:46:13.533Z,101198.52
2023-04-17T19:48:42.799Z,101194.67
2023-04-17T19:51:10.155Z,101196.16
2023-04-17T19:53:40.421Z,101193.45
2023-04-17T19:56:08.820Z,101196.59
2023-04-17T19:58:36.539Z,101193.20
2023-04-17T20:01:03.331Z,101193.54
2023-04-17T20:03:31.422Z,101195.06
2023-04-17T20:05:58.549Z,101197.58
2023-04-17T20:08:25.313Z,101194.70
2023-04-17T20:10:52.679Z,101192.08
2023-04-17T20:13:18.975Z,101194.20
2023-04-17T20:15:45.333Z,101193.77
2023-04-17T20:18:11.914Z,101198.60
2023-04-17T20:20:38.544Z,101201.25
2023-04-17T20:23:05.491Z,101199.02
2023-04-17T20:25:32.020Z,101197.41
2023-04-17T20:27:58.405Z,101196.15
2023-04-17T20:30:24.831Z,101197.10
2023-04-17T20:32:51.234Z,101195.95
2023-04-17T20:35:20.030Z,101199.02
2023-04-17T20:37:46.391Z,101199.02
2023-04-17T20:40:13.558Z,101202.91
2023-04-17T20:42:41.408Z,101203.66
2023-04-17T20:45:09.343Z,101200.82
2023-04-17T20:47:37.718Z,101201.91
2023-04-17T20:50:07.825Z,101205.05
2023-04-17T20:52:34.949Z,101211.22
2023-04-17T20:55:01.217Z,101213.76
2023-04-17T20:57:28.943Z,101212.08
2023-04-17T20:59:55.514Z,101216.19
2023-04-17T21:02:22.037Z,101215.50
2023-04-17T21:04:48.881Z,101215.43
2023-04-17T21:07:15.620Z,101218.80
2023-04-17T21:09:42.162Z,101223.10
2023-04-17T21:12:08.554Z,101220.81
2023-04-17T21:14:35.897Z,101222.92
2023-04-17T21:17:02.210Z,101225.80
2023-04-17T21:19:30.078Z,101232.08
2023-04-17T21:21:57.735Z,101235.12
2023-04-17T21:24:24.580Z,101233.66
2023-04-17T21:26:50.948Z,101237.95
2023-04-17T21:29:17.167Z,101239.57
2023-04-17T21:31:43.456Z,101240.73
2023-04-17T21:34:09.975Z,101240.77
2023-04-17T21:36:36.425Z,101241.38
2023-04-17T21:39:02.754Z,101237.98
2023-04-17T21:41:31.190Z,101235.75
2023-04-17T21:44:02.004Z,101233.35
2023-04-17T21:46:28.646Z,101230.44
2023-04-17T21:48:56.464Z,101232.96
2023-04-17T21:51:23.008Z,101229.55
2023-04-17T21:53:49.683Z,101225.52
2023-04-17T21:56:15.946Z,101228.61
2023-04-17T21:58:42.236Z,101225.26
2023-04-17T22:01:08.573Z,101227.77
2023-04-17T22:03:35.211Z,101231.74
2023-04-17T22:06:01.612Z,101231.33
2023-04-17T22:08:27.894Z,101233.59
2023-04-17T22:10:54.116Z,101232.10
2023-04-17T22:13:20.661Z,101234.84
2023-04-17T22:15:47.795Z,101232.46
2023-04-17T22:18:14.535Z,101234.62
2023-04-17T22:20:40.941Z,101236.11
2023-04-17T22:23:07.373Z,101231.85
2023-04-17T22:25:33.775Z,101231.61
2023-04-17T22:28:00.358Z,101234.33
2023-04-17T22:30:26.611Z,101229.73
2023-04-17T22:32:52.879Z,101235.27
2023-04-17T22:35:19.233Z,101236.02
2023-04-17T22:37:45.551Z,101234.80
2023-04-17T22:40:12.845Z,101235.60
2023-04-17T22:42:39.511Z,101235.08
2023-04-17T22:45:06.617Z,101237.16
2023-04-17T22:47:32.919Z,101235.36
2023-04-17T22:49:59.226Z,101235.23
2023-04-17T22:52:25.486Z,101239.19
2023-04-17T22:54:52.774Z,101237.51
2023-04-17T22:57:19.323Z,101238.98
2023-04-17T22:59:45.647Z,101238.20
2023-04-17T23:02:12.024Z,101239.59
2023-04-17T23:04:38.659Z,101242.42
2023-04-17T23:07:05.043Z,101240.85
2023-04-17T23:09:31.338Z,101238.39
2023-04-17T23:11:57.677Z,101239.64
2023-04-17T23:14:25.629Z,101239.73
2023-04-17T23:16:52.204Z,101235.30
2023-04-17T23:19:20.415Z,101237.27
2023-04-17T23:21:46.702Z,101235.59
2023-04-17T23:24:13.066Z,101233.10
2023-04-17T23:26:39.630Z,101234.79
2023-04-17T23:29:05.925Z,101233.48
2023-04-17T23:31:32.272Z,101231.48
2023-04-17T23:33:58.625Z,101231.91
2023-04-17T23:36:24.980Z,101234.40
2023-04-17T23:38:51.423Z,101231.81
2023-04-17T23:41:17.669Z,101229.58
2023-04-17T23:43:44.266Z,101232.20
2023-04-17T23:46:10.648Z,101225.71
2023-04-17T23:48:36.993Z,101228.95
2023-04-17T23:51:03.644Z,101230.58
2023-04-17T23:53:30.003Z,101232.79
2023-04-17T23:55:56.432Z,101228.77
2023-04-17T23:58:22.653Z,101232.59
